Queen, North Carolina
Current Conditions -  °F | °C
As of 9:55 AM on Wednesday 22 Oct 2014 (Local Time) from KVUJ Reporting Station
Clear Clear  
Wind Chill: 55°   Ceiling: Unl
Heat Index: 55°   Visibility: 10mi
Dew Point: 39°   Wind: 18mph
Humidity: 55%   Direction: 350°N
Pressure: 30.08"   Gusts: 28mph
Location:  35.4086°N, 79.9566°W
Report Text: KVUJ 221355Z AUTO 35016G24KT 10SM CLR 13/04 A3008 RMK AO2 T01280040
Loading
Personal Weather Stations






























Interactive Weather Map
Tropical Storm Tracking
New forecast layout! Learn more

10-Day Weather Forecast

Advertisements
Track Severe Weather on mobile